This is the latest recevied weather packets stored in our database for station/object CE4ERM-13. If no packets are shown the sender has not sent any weather packets the latest 10 day(s).
| Time | Temp. | Humidity | Pressure | Rain* | Wind** | Luminosity | Snow |
|---|---|---|---|---|---|---|---|
| 1777231291 | 29.44° C | 17% | 1018.6 hPa | - | - | - | - |
| 1777231025 | 22.78° C | 28% | 1021.7 hPa | - | - | - | - |
| 1777230690 | 30° C | 17% | 1018.2 hPa | - | - | - | - |
| 1777230425 | 22.78° C | 28% | 1021.7 hPa | - | - | - | - |
| 1777230090 | 30° C | 17% | 1017.8 hPa | - | - | - | - |
| 1777229825 | 22.78° C | 28% | 1021.5 hPa | - | - | - | - |
| 1777228890 | 30° C | 18% | 1018.6 hPa | - | - | - | - |
| 1777228668 | 22.22° C | 27% | 1019 hPa | - | - | - | - |
| 1777228623 | 22.22° C | 27% | 1019 hPa | - | - | - | - |
| 1777228290 | 30° C | 19% | 1018.3 hPa | - | - | - | - |
| 1777227690 | 29.44° C | 17% | 1018 hPa | - | - | - | - |
| 1777227090 | 30° C | 19% | 1017.6 hPa | - | - | - | - |
| 1777226822 | 22.22° C | 30% | 1019.7 hPa | - | - | - | - |
| 1777226490 | 30° C | 19% | 1017.7 hPa | - | - | - | - |
| 1777226222 | 22.22° C | 35% | 1020.6 hPa | - | - | - | - |
| 1777225889 | 30.56° C | 18% | 1018.2 hPa | - | - | - | - |
| 1777225288 | 29.44° C | 21% | 1018.5 hPa | - | - | - | - |
| 1777225022 | 22.22° C | 43% | 1020.8 hPa | - | - | - | - |
| 1777224687 | 31.67° C | 19% | 1018.2 hPa | - | - | - | - |
| 1777224422 | 21.67° C | 41% | 1017.9 hPa | - | - | - | - |
| 1777224087 | 30° C | 24% | 1018.5 hPa | - | - | - | - |
| 1777223487 | 29.44° C | 22% | 1016.9 hPa | - | - | - | - |
| 1777222886 | 29.44° C | 21% | 1018.2 hPa | - | - | - | - |
| 1777222621 | 21.11° C | 50% | 1022.5 hPa | - | - | - | - |
| 1777221685 | 28.89° C | 22% | 1020.4 hPa | - | - | - | - |
* Rain since midnight (hover to see other rain measurements)
** Current wind speed in m/s (hover to see current wind gust speed)